sensor_id;sensor_type;location;lat;lon;timestamp;P1;durP1;ratioP1;P2;durP2;ratioP2
6426;SDS011;3246;42.664;23.308;2023-01-01T00:02:04;324.43;;;175.70;;
6426;SDS011;3246;42.664;23.308;2023-01-01T00:04:31;244.83;;;145.23;;
6426;SDS011;3246;42.664;23.308;2023-01-01T00:07:00;263.77;;;155.20;;
6426;SDS011;3246;42.664;23.308;2023-01-01T00:09:26;287.03;;;166.93;;
6426;SDS011;3246;42.664;23.308;2023-01-01T00:12:10;282.23;;;167.47;;
6426;SDS011;3246;42.664;23.308;2023-01-01T00:14:37;262.30;;;157.50;;
6426;SDS011;3246;42.664;23.308;2023-01-01T00:17:06;254.37;;;147.83;;
6426;SDS011;3246;42.664;23.308;2023-01-01T00:19:33;250.07;;;145.87;;
6426;SDS011;3246;42.664;23.308;2023-01-01T00:22:01;253.83;;;144.30;;
6426;SDS011;3246;42.664;23.308;2023-01-01T00:24:27;228.13;;;141.33;;
6426;SDS011;3246;42.664;23.308;2023-01-01T00:26:54;240.93;;;137.50;;
6426;SDS011;3246;42.664;23.308;2023-01-01T00:29:20;249.07;;;136.07;;
6426;SDS011;3246;42.664;23.308;2023-01-01T00:31:47;225.80;;;132.73;;
6426;SDS011;3246;42.664;23.308;2023-01-01T00:34:13;235.97;;;134.93;;
6426;SDS011;3246;42.664;23.308;2023-01-01T00:36:40;245.27;;;133.50;;
6426;SDS011;3246;42.664;23.308;2023-01-01T00:39:08;230.47;;;132.93;;
6426;SDS011;3246;42.664;23.308;2023-01-01T00:41:34;238.40;;;133.47;;
6426;SDS011;3246;42.664;23.308;2023-01-01T00:44:01;223.43;;;133.17;;
6426;SDS011;3246;42.664;23.308;2023-01-01T00:46:27;239.40;;;134.47;;
6426;SDS011;3246;42.664;23.308;2023-01-01T00:48:54;225.40;;;130.00;;
6426;SDS011;3246;42.664;23.308;2023-01-01T00:51:20;234.10;;;131.13;;
6426;SDS011;3246;42.664;23.308;2023-01-01T00:53:46;213.40;;;132.70;;
6426;SDS011;3246;42.664;23.308;2023-01-01T00:56:14;231.00;;;138.60;;
6426;SDS011;3246;42.664;23.308;2023-01-01T00:58:41;222.23;;;132.93;;
6426;SDS011;3246;42.664;23.308;2023-01-01T01:01:08;243.17;;;140.57;;
6426;SDS011;3246;42.664;23.308;2023-01-01T01:03:36;254.13;;;146.57;;
6426;SDS011;3246;42.664;23.308;2023-01-01T01:06:06;230.33;;;136.83;;
6426;SDS011;3246;42.664;23.308;2023-01-01T01:08:34;235.43;;;136.93;;
6426;SDS011;3246;42.664;23.308;2023-01-01T01:11:03;226.20;;;132.63;;
6426;SDS011;3246;42.664;23.308;2023-01-01T01:13:31;211.07;;;126.37;;
6426;SDS011;3246;42.664;23.308;2023-01-01T01:15:57;193.50;;;116.13;;
6426;SDS011;3246;42.664;23.308;2023-01-01T01:18:24;197.20;;;112.80;;
6426;SDS011;3246;42.664;23.308;2023-01-01T01:20:51;203.47;;;114.83;;
6426;SDS011;3246;42.664;23.308;2023-01-01T01:23:17;191.80;;;116.37;;
6426;SDS011;3246;42.664;23.308;2023-01-01T01:25:44;213.33;;;127.63;;
6426;SDS011;3246;42.664;23.308;2023-01-01T01:28:10;232.97;;;138.67;;
6426;SDS011;3246;42.664;23.308;2023-01-01T01:30:38;253.00;;;143.83;;
6426;SDS011;3246;42.664;23.308;2023-01-01T01:33:05;251.60;;;148.93;;
6426;SDS011;3246;42.664;23.308;2023-01-01T01:35:32;232.47;;;144.07;;
6426;SDS011;3246;42.664;23.308;2023-01-01T01:37:58;234.23;;;139.00;;
6426;SDS011;3246;42.664;23.308;2023-01-01T01:40:24;229.33;;;134.47;;
6426;SDS011;3246;42.664;23.308;2023-01-01T01:42:51;253.17;;;148.27;;
6426;SDS011;3246;42.664;23.308;2023-01-01T01:45:17;235.40;;;140.13;;
6426;SDS011;3246;42.664;23.308;2023-01-01T01:47:48;217.10;;;128.30;;
6426;SDS011;3246;42.664;23.308;2023-01-01T01:50:16;208.43;;;121.37;;
6426;SDS011;3246;42.664;23.308;2023-01-01T01:52:46;203.83;;;116.83;;
6426;SDS011;3246;42.664;23.308;2023-01-01T01:55:17;200.83;;;115.50;;
6426;SDS011;3246;42.664;23.308;2023-01-01T01:57:43;195.93;;;114.53;;
6426;SDS011;3246;42.664;23.308;2023-01-01T02:00:10;209.40;;;119.50;;
6426;SDS011;3246;42.664;23.308;2023-01-01T02:02:38;205.43;;;121.20;;
6426;SDS011;3246;42.664;23.308;2023-01-01T02:05:07;301.67;;;172.00;;
6426;SDS011;3246;42.664;23.308;2023-01-01T02:07:33;285.67;;;174.77;;
6426;SDS011;3246;42.664;23.308;2023-01-01T02:10:01;264.23;;;157.27;;
6426;SDS011;3246;42.664;23.308;2023-01-01T02:12:27;263.30;;;154.93;;
6426;SDS011;3246;42.664;23.308;2023-01-01T02:14:54;244.90;;;144.90;;
6426;SDS011;3246;42.664;23.308;2023-01-01T02:17:21;245.67;;;142.40;;
6426;SDS011;3246;42.664;23.308;2023-01-01T02:19:54;228.30;;;133.77;;
6426;SDS011;3246;42.664;23.308;2023-01-01T02:22:30;243.27;;;144.70;;
6426;SDS011;3246;42.664;23.308;2023-01-01T02:25:09;218.90;;;130.80;;
6426;SDS011;3246;42.664;23.308;2023-01-01T02:27:41;207.00;;;119.73;;
6426;SDS011;3246;42.664;23.308;2023-01-01T02:30:12;200.00;;;115.20;;
6426;SDS011;3246;42.664;23.308;2023-01-01T02:32:40;188.43;;;115.83;;
6426;SDS011;3246;42.664;23.308;2023-01-01T02:35:09;193.03;;;109.87;;
6426;SDS011;3246;42.664;23.308;2023-01-01T02:37:55;189.93;;;112.20;;
6426;SDS011;3246;42.664;23.308;2023-01-01T02:40:22;206.80;;;117.87;;
6426;SDS011;3246;42.664;23.308;2023-01-01T02:42:50;180.17;;;109.17;;
6426;SDS011;3246;42.664;23.308;2023-01-01T02:45:19;195.90;;;108.90;;
6426;SDS011;3246;42.664;23.308;2023-01-01T02:47:45;204.27;;;110.33;;
6426;SDS011;3246;42.664;23.308;2023-01-01T02:50:12;181.63;;;107.83;;
6426;SDS011;3246;42.664;23.308;2023-01-01T02:52:51;185.40;;;108.63;;
6426;SDS011;3246;42.664;23.308;2023-01-01T02:55:26;186.50;;;107.00;;
6426;SDS011;3246;42.664;23.308;2023-01-01T02:57:58;180.20;;;110.30;;
6426;SDS011;3246;42.664;23.308;2023-01-01T03:00:48;197.60;;;109.77;;
6426;SDS011;3246;42.664;23.308;2023-01-01T03:03:16;225.43;;;117.87;;
6426;SDS011;3246;42.664;23.308;2023-01-01T03:05:47;224.03;;;125.80;;
6426;SDS011;3246;42.664;23.308;2023-01-01T03:08:37;230.87;;;129.87;;
6426;SDS011;3246;42.664;23.308;2023-01-01T03:11:06;215.23;;;128.47;;
6426;SDS011;3246;42.664;23.308;2023-01-01T03:13:35;221.30;;;129.63;;
6426;SDS011;3246;42.664;23.308;2023-01-01T03:16:06;224.57;;;134.53;;
6426;SDS011;3246;42.664;23.308;2023-01-01T03:18:36;223.43;;;132.37;;
6426;SDS011;3246;42.664;23.308;2023-01-01T03:21:04;225.67;;;136.10;;
6426;SDS011;3246;42.664;23.308;2023-01-01T03:23:33;224.63;;;133.33;;
6426;SDS011;3246;42.664;23.308;2023-01-01T03:26:01;225.50;;;138.77;;
6426;SDS011;3246;42.664;23.308;2023-01-01T03:28:31;223.27;;;137.57;;
6426;SDS011;3246;42.664;23.308;2023-01-01T03:31:00;259.47;;;149.17;;
6426;SDS011;3246;42.664;23.308;2023-01-01T03:33:29;247.13;;;143.23;;
6426;SDS011;3246;42.664;23.308;2023-01-01T03:35:56;243.77;;;141.57;;
6426;SDS011;3246;42.664;23.308;2023-01-01T03:38:25;245.07;;;142.53;;
6426;SDS011;3246;42.664;23.308;2023-01-01T03:40:56;248.40;;;142.93;;
6426;SDS011;3246;42.664;23.308;2023-01-01T03:43:26;248.37;;;142.93;;
6426;SDS011;3246;42.664;23.308;2023-01-01T03:45:54;235.73;;;139.80;;
6426;SDS011;3246;42.664;23.308;2023-01-01T03:48:21;238.10;;;143.53;;
6426;SDS011;3246;42.664;23.308;2023-01-01T03:50:53;251.53;;;145.67;;
6426;SDS011;3246;42.664;23.308;2023-01-01T03:53:25;257.20;;;145.83;;
6426;SDS011;3246;42.664;23.308;2023-01-01T03:55:54;245.93;;;140.37;;
6426;SDS011;3246;42.664;23.308;2023-01-01T03:58:25;240.00;;;140.13;;
6426;SDS011;3246;42.664;23.308;2023-01-01T04:01:00;225.53;;;135.63;;
6426;SDS011;3246;42.664;23.308;2023-01-01T04:03:28;228.47;;;133.03;;
6426;SDS011;3246;42.664;23.308;2023-01-01T04:05:56;230.27;;;131.93;;
6426;SDS011;3246;42.664;23.308;2023-01-01T04:08:23;222.57;;;137.73;;
6426;SDS011;3246;42.664;23.308;2023-01-01T04:10:50;240.53;;;133.57;;
6426;SDS011;3246;42.664;23.308;2023-01-01T04:13:18;240.20;;;137.30;;
6426;SDS011;3246;42.664;23.308;2023-01-01T04:15:45;215.67;;;130.27;;
6426;SDS011;3246;42.664;23.308;2023-01-01T04:18:11;221.17;;;126.67;;
6426;SDS011;3246;42.664;23.308;2023-01-01T04:20:37;210.40;;;120.17;;
6426;SDS011;3246;42.664;23.308;2023-01-01T04:23:05;211.07;;;127.50;;
6426;SDS011;3246;42.664;23.308;2023-01-01T04:25:32;239.23;;;139.10;;
6426;SDS011;3246;42.664;23.308;2023-01-01T04:27:58;234.47;;;132.20;;
6426;SDS011;3246;42.664;23.308;2023-01-01T04:30:27;266.03;;;139.23;;
6426;SDS011;3246;42.664;23.308;2023-01-01T04:32:54;226.13;;;133.03;;
6426;SDS011;3246;42.664;23.308;2023-01-01T04:35:20;234.87;;;132.40;;
6426;SDS011;3246;42.664;23.308;2023-01-01T04:37:47;234.40;;;127.83;;
6426;SDS011;3246;42.664;23.308;2023-01-01T04:40:15;210.80;;;127.13;;
6426;SDS011;3246;42.664;23.308;2023-01-01T04:42:41;194.87;;;118.90;;
6426;SDS011;3246;42.664;23.308;2023-01-01T04:45:08;208.73;;;120.90;;
6426;SDS011;3246;42.664;23.308;2023-01-01T04:47:36;208.93;;;122.30;;
6426;SDS011;3246;42.664;23.308;2023-01-01T04:50:03;195.27;;;111.87;;
6426;SDS011;3246;42.664;23.308;2023-01-01T04:52:29;191.70;;;110.47;;
6426;SDS011;3246;42.664;23.308;2023-01-01T04:54:56;191.50;;;112.70;;
6426;SDS011;3246;42.664;23.308;2023-01-01T04:57:24;190.47;;;111.13;;
6426;SDS011;3246;42.664;23.308;2023-01-01T04:59:50;195.10;;;113.37;;
6426;SDS011;3246;42.664;23.308;2023-01-01T05:02:16;198.70;;;115.13;;
6426;SDS011;3246;42.664;23.308;2023-01-01T05:04:43;207.07;;;114.20;;
6426;SDS011;3246;42.664;23.308;2023-01-01T05:07:09;205.97;;;116.93;;
6426;SDS011;3246;42.664;23.308;2023-01-01T05:09:36;181.63;;;111.80;;
6426;SDS011;3246;42.664;23.308;2023-01-01T05:12:02;200.03;;;119.33;;
6426;SDS011;3246;42.664;23.308;2023-01-01T05:14:30;219.40;;;127.03;;
6426;SDS011;3246;42.664;23.308;2023-01-01T05:16:57;208.07;;;122.70;;
6426;SDS011;3246;42.664;23.308;2023-01-01T05:19:23;206.00;;;122.13;;
6426;SDS011;3246;42.664;23.308;2023-01-01T05:21:50;203.57;;;122.60;;
6426;SDS011;3246;42.664;23.308;2023-01-01T05:24:16;191.30;;;114.73;;
6426;SDS011;3246;42.664;23.308;2023-01-01T05:26:43;176.67;;;107.07;;
6426;SDS011;3246;42.664;23.308;2023-01-01T05:29:10;183.90;;;106.87;;
6426;SDS011;3246;42.664;23.308;2023-01-01T05:31:38;188.40;;;105.00;;
6426;SDS011;3246;42.664;23.308;2023-01-01T05:34:04;181.43;;;106.80;;
6426;SDS011;3246;42.664;23.308;2023-01-01T05:36:32;162.67;;;93.33;;
6426;SDS011;3246;42.664;23.308;2023-01-01T05:38:59;171.53;;;100.03;;
6426;SDS011;3246;42.664;23.308;2023-01-01T05:41:26;173.00;;;98.00;;
6426;SDS011;3246;42.664;23.308;2023-01-01T05:43:52;169.07;;;97.60;;
6426;SDS011;3246;42.664;23.308;2023-01-01T05:46:19;167.10;;;97.23;;
6426;SDS011;3246;42.664;23.308;2023-01-01T05:48:48;153.47;;;92.13;;
6426;SDS011;3246;42.664;23.308;2023-01-01T05:51:15;163.20;;;91.20;;
6426;SDS011;3246;42.664;23.308;2023-01-01T05:53:42;160.97;;;91.67;;
6426;SDS011;3246;42.664;23.308;2023-01-01T05:56:10;156.50;;;92.33;;
6426;SDS011;3246;42.664;23.308;2023-01-01T05:58:37;156.47;;;89.47;;
6426;SDS011;3246;42.664;23.308;2023-01-01T06:01:04;159.27;;;93.87;;
6426;SDS011;3246;42.664;23.308;2023-01-01T06:03:31;153.10;;;93.03;;
6426;SDS011;3246;42.664;23.308;2023-01-01T06:06:02;167.13;;;90.63;;
6426;SDS011;3246;42.664;23.308;2023-01-01T06:08:29;147.47;;;86.30;;
6426;SDS011;3246;42.664;23.308;2023-01-01T06:10:56;141.37;;;86.10;;
6426;SDS011;3246;42.664;23.308;2023-01-01T06:13:23;155.77;;;87.63;;
6426;SDS011;3246;42.664;23.308;2023-01-01T06:15:51;148.63;;;91.53;;
6426;SDS011;3246;42.664;23.308;2023-01-01T06:18:18;151.83;;;85.80;;
6426;SDS011;3246;42.664;23.308;2023-01-01T06:20:44;148.47;;;87.00;;
6426;SDS011;3246;42.664;23.308;2023-01-01T06:23:12;142.43;;;84.23;;
6426;SDS011;3246;42.664;23.308;2023-01-01T06:25:39;143.37;;;85.60;;
6426;SDS011;3246;42.664;23.308;2023-01-01T06:28:05;135.03;;;81.47;;
6426;SDS011;3246;42.664;23.308;2023-01-01T06:30:32;171.10;;;93.67;;
6426;SDS011;3246;42.664;23.308;2023-01-01T06:32:58;178.87;;;106.57;;
6426;SDS011;3246;42.664;23.308;2023-01-01T06:35:25;184.83;;;110.33;;
6426;SDS011;3246;42.664;23.308;2023-01-01T06:37:51;198.27;;;113.43;;
6426;SDS011;3246;42.664;23.308;2023-01-01T06:40:19;179.43;;;112.23;;
6426;SDS011;3246;42.664;23.308;2023-01-01T06:42:46;193.90;;;107.43;;
6426;SDS011;3246;42.664;23.308;2023-01-01T06:45:12;177.63;;;101.00;;
6426;SDS011;3246;42.664;23.308;2023-01-01T06:47:38;163.40;;;96.33;;
6426;SDS011;3246;42.664;23.308;2023-01-01T06:50:05;171.57;;;98.13;;
6426;SDS011;3246;42.664;23.308;2023-01-01T06:52:32;166.53;;;94.90;;
6426;SDS011;3246;42.664;23.308;2023-01-01T06:54:58;142.90;;;85.23;;
6426;SDS011;3246;42.664;23.308;2023-01-01T06:57:26;141.60;;;81.23;;
6426;SDS011;3246;42.664;23.308;2023-01-01T06:59:53;139.80;;;79.63;;
6426;SDS011;3246;42.664;23.308;2023-01-01T07:02:19;136.37;;;84.20;;
6426;SDS011;3246;42.664;23.308;2023-01-01T07:04:46;143.07;;;82.13;;
6426;SDS011;3246;42.664;23.308;2023-01-01T07:07:12;135.57;;;81.53;;
6426;SDS011;3246;42.664;23.308;2023-01-01T07:09:39;128.33;;;78.57;;
6426;SDS011;3246;42.664;23.308;2023-01-01T07:12:05;141.60;;;81.30;;
6426;SDS011;3246;42.664;23.308;2023-01-01T07:14:33;133.93;;;80.37;;
6426;SDS011;3246;42.664;23.308;2023-01-01T07:17:00;138.30;;;82.30;;
6426;SDS011;3246;42.664;23.308;2023-01-01T07:19:26;138.70;;;80.20;;
6426;SDS011;3246;42.664;23.308;2023-01-01T07:21:53;140.70;;;81.53;;
6426;SDS011;3246;42.664;23.308;2023-01-01T07:24:20;140.67;;;79.43;;
6426;SDS011;3246;42.664;23.308;2023-01-01T07:26:46;141.23;;;79.30;;
6426;SDS011;3246;42.664;23.308;2023-01-01T07:29:14;148.30;;;83.17;;
6426;SDS011;3246;42.664;23.308;2023-01-01T07:31:42;146.20;;;85.20;;
6426;SDS011;3246;42.664;23.308;2023-01-01T07:34:10;149.43;;;85.33;;
6426;SDS011;3246;42.664;23.308;2023-01-01T07:36:37;150.60;;;87.93;;
6426;SDS011;3246;42.664;23.308;2023-01-01T07:39:03;162.43;;;91.17;;
6426;SDS011;3246;42.664;23.308;2023-01-01T07:41:30;150.23;;;88.67;;
6426;SDS011;3246;42.664;23.308;2023-01-01T07:43:56;159.03;;;89.40;;
6426;SDS011;3246;42.664;23.308;2023-01-01T07:46:23;159.30;;;91.27;;
6426;SDS011;3246;42.664;23.308;2023-01-01T07:48:51;164.77;;;92.43;;
6426;SDS011;3246;42.664;23.308;2023-01-01T07:51:17;147.97;;;89.77;;
6426;SDS011;3246;42.664;23.308;2023-01-01T07:53:44;140.07;;;81.53;;
6426;SDS011;3246;42.664;23.308;2023-01-01T07:56:10;134.93;;;78.50;;
6426;SDS011;3246;42.664;23.308;2023-01-01T07:58:37;129.63;;;78.33;;
6426;SDS011;3246;42.664;23.308;2023-01-01T08:01:04;128.20;;;77.87;;
6426;SDS011;3246;42.664;23.308;2023-01-01T08:03:30;125.73;;;75.57;;
6426;SDS011;3246;42.664;23.308;2023-01-01T08:05:58;130.67;;;79.53;;
6426;SDS011;3246;42.664;23.308;2023-01-01T08:08:24;131.13;;;77.23;;
6426;SDS011;3246;42.664;23.308;2023-01-01T08:10:51;123.87;;;80.07;;
6426;SDS011;3246;42.664;23.308;2023-01-01T08:13:17;132.23;;;80.60;;
6426;SDS011;3246;42.664;23.308;2023-01-01T08:15:44;135.47;;;78.83;;
6426;SDS011;3246;42.664;23.308;2023-01-01T08:18:10;135.17;;;81.17;;
6426;SDS011;3246;42.664;23.308;2023-01-01T08:20:37;131.83;;;78.63;;
6426;SDS011;3246;42.664;23.308;2023-01-01T08:23:05;128.17;;;78.60;;
6426;SDS011;3246;42.664;23.308;2023-01-01T08:25:31;132.50;;;78.63;;
6426;SDS011;3246;42.664;23.308;2023-01-01T08:27:58;128.93;;;78.10;;
6426;SDS011;3246;42.664;23.308;2023-01-01T08:30:24;134.13;;;81.30;;
6426;SDS011;3246;42.664;23.308;2023-01-01T08:32:50;131.13;;;76.50;;
6426;SDS011;3246;42.664;23.308;2023-01-01T08:35:17;130.07;;;78.73;;
6426;SDS011;3246;42.664;23.308;2023-01-01T08:37:44;134.30;;;79.57;;
6426;SDS011;3246;42.664;23.308;2023-01-01T08:40:12;126.93;;;77.67;;
6426;SDS011;3246;42.664;23.308;2023-01-01T08:42:38;117.57;;;76.87;;
6426;SDS011;3246;42.664;23.308;2023-01-01T08:45:06;122.23;;;76.63;;
6426;SDS011;3246;42.664;23.308;2023-01-01T08:47:32;129.63;;;75.80;;
6426;SDS011;3246;42.664;23.308;2023-01-01T08:49:59;134.60;;;77.23;;
6426;SDS011;3246;42.664;23.308;2023-01-01T08:52:25;128.67;;;77.27;;
6426;SDS011;3246;42.664;23.308;2023-01-01T08:54:52;138.27;;;78.93;;
6426;SDS011;3246;42.664;23.308;2023-01-01T08:57:20;119.87;;;77.90;;
6426;SDS011;3246;42.664;23.308;2023-01-01T08:59:46;131.73;;;78.37;;
6426;SDS011;3246;42.664;23.308;2023-01-01T09:02:13;130.53;;;76.00;;
6426;SDS011;3246;42.664;23.308;2023-01-01T09:04:39;131.70;;;78.97;;
6426;SDS011;3246;42.664;23.308;2023-01-01T09:07:06;132.83;;;76.17;;
6426;SDS011;3246;42.664;23.308;2023-01-01T09:09:32;117.90;;;75.97;;
6426;SDS011;3246;42.664;23.308;2023-01-01T09:11:59;127.77;;;74.90;;
6426;SDS011;3246;42.664;23.308;2023-01-01T09:14:31;126.20;;;76.13;;
6426;SDS011;3246;42.664;23.308;2023-01-01T09:16:58;132.13;;;75.03;;
6426;SDS011;3246;42.664;23.308;2023-01-01T09:19:24;129.27;;;73.97;;
6426;SDS011;3246;42.664;23.308;2023-01-01T09:21:51;126.53;;;75.57;;
6426;SDS011;3246;42.664;23.308;2023-01-01T09:24:17;116.33;;;73.33;;
6426;SDS011;3246;42.664;23.308;2023-01-01T09:26:44;125.93;;;72.73;;
6426;SDS011;3246;42.664;23.308;2023-01-01T09:29:10;118.93;;;73.03;;
6426;SDS011;3246;42.664;23.308;2023-01-01T09:31:38;179.23;;;103.07;;
6426;SDS011;3246;42.664;23.308;2023-01-01T09:34:05;161.93;;;92.53;;
6426;SDS011;3246;42.664;23.308;2023-01-01T09:36:31;145.53;;;86.90;;
6426;SDS011;3246;42.664;23.308;2023-01-01T09:38:58;167.07;;;98.10;;
6426;SDS011;3246;42.664;23.308;2023-01-01T09:41:28;134.70;;;80.60;;
6426;SDS011;3246;42.664;23.308;2023-01-01T09:43:59;123.03;;;75.97;;
6426;SDS011;3246;42.664;23.308;2023-01-01T09:46:28;124.07;;;74.80;;
6426;SDS011;3246;42.664;23.308;2023-01-01T09:48:56;125.60;;;72.37;;
6426;SDS011;3246;42.664;23.308;2023-01-01T09:51:25;112.67;;;69.53;;
6426;SDS011;3246;42.664;23.308;2023-01-01T09:53:53;128.37;;;72.30;;
6426;SDS011;3246;42.664;23.308;2023-01-01T09:56:21;145.97;;;82.00;;
6426;SDS011;3246;42.664;23.308;2023-01-01T09:58:49;122.33;;;72.67;;
6426;SDS011;3246;42.664;23.308;2023-01-01T10:03:59;119.40;;;67.90;;
6426;SDS011;3246;42.664;23.308;2023-01-01T10:06:27;111.83;;;64.93;;
6426;SDS011;3246;42.664;23.308;2023-01-01T10:08:58;104.67;;;64.60;;
6426;SDS011;3246;42.664;23.308;2023-01-01T10:11:28;107.33;;;66.63;;
6426;SDS011;3246;42.664;23.308;2023-01-01T10:13:56;110.03;;;61.87;;
6426;SDS011;3246;42.664;23.308;2023-01-01T10:16:25;119.10;;;66.53;;
6426;SDS011;3246;42.664;23.308;2023-01-01T10:18:53;112.47;;;65.73;;
6426;SDS011;3246;42.664;23.308;2023-01-01T10:21:23;106.03;;;62.90;;
6426;SDS011;3246;42.664;23.308;2023-01-01T10:23:51;110.33;;;62.10;;
6426;SDS011;3246;42.664;23.308;2023-01-01T10:26:20;104.10;;;62.57;;
6426;SDS011;3246;42.664;23.308;2023-01-01T10:28:53;106.63;;;60.40;;
6426;SDS011;3246;42.664;23.308;2023-01-01T10:31:24;109.00;;;60.03;;
6426;SDS011;3246;42.664;23.308;2023-01-01T10:33:51;89.93;;;53.53;;
6426;SDS011;3246;42.664;23.308;2023-01-01T10:36:18;93.47;;;56.33;;
6426;SDS011;3246;42.664;23.308;2023-01-01T10:38:46;95.50;;;56.80;;
6426;SDS011;3246;42.664;23.308;2023-01-01T10:41:13;99.60;;;57.67;;
6426;SDS011;3246;42.664;23.308;2023-01-01T10:43:40;86.00;;;54.67;;
6426;SDS011;3246;42.664;23.308;2023-01-01T10:46:08;93.40;;;55.53;;
6426;SDS011;3246;42.664;23.308;2023-01-01T10:48:36;90.97;;;56.27;;
6426;SDS011;3246;42.664;23.308;2023-01-01T10:51:04;100.80;;;61.67;;
6426;SDS011;3246;42.664;23.308;2023-01-01T10:53:31;96.57;;;62.63;;
6426;SDS011;3246;42.664;23.308;2023-01-01T10:56:05;108.07;;;66.13;;
6426;SDS011;3246;42.664;23.308;2023-01-01T10:58:36;114.17;;;67.77;;
6426;SDS011;3246;42.664;23.308;2023-01-01T11:01:03;101.73;;;60.87;;
6426;SDS011;3246;42.664;23.308;2023-01-01T11:03:30;105.20;;;62.00;;
6426;SDS011;3246;42.664;23.308;2023-01-01T11:06:00;103.67;;;60.97;;
6426;SDS011;3246;42.664;23.308;2023-01-01T11:08:27;106.47;;;64.00;;
6426;SDS011;3246;42.664;23.308;2023-01-01T11:10:55;113.57;;;64.50;;
6426;SDS011;3246;42.664;23.308;2023-01-01T11:13:24;93.30;;;60.53;;
6426;SDS011;3246;42.664;23.308;2023-01-01T11:15:50;97.67;;;59.53;;
6426;SDS011;3246;42.664;23.308;2023-01-01T11:18:19;88.57;;;55.67;;
6426;SDS011;3246;42.664;23.308;2023-01-01T11:20:49;92.90;;;58.10;;
6426;SDS011;3246;42.664;23.308;2023-01-01T11:23:17;84.83;;;53.37;;
6426;SDS011;3246;42.664;23.308;2023-01-01T11:25:58;90.00;;;53.83;;
6426;SDS011;3246;42.664;23.308;2023-01-01T11:28:27;88.33;;;55.10;;
6426;SDS011;3246;42.664;23.308;2023-01-01T11:30:59;81.43;;;54.10;;
6426;SDS011;3246;42.664;23.308;2023-01-01T11:33:27;81.97;;;51.50;;
6426;SDS011;3246;42.664;23.308;2023-01-01T11:35:55;88.73;;;52.97;;
6426;SDS011;3246;42.664;23.308;2023-01-01T11:38:22;86.30;;;54.47;;
6426;SDS011;3246;42.664;23.308;2023-01-01T11:40:50;82.27;;;53.17;;
6426;SDS011;3246;42.664;23.308;2023-01-01T11:43:17;77.70;;;49.47;;
6426;SDS011;3246;42.664;23.308;2023-01-01T11:45:47;77.70;;;47.95;;
6426;SDS011;3246;42.664;23.308;2023-01-01T11:48:16;84.43;;;49.65;;
6426;SDS011;3246;42.664;23.308;2023-01-01T11:50:47;74.30;;;47.92;;
6426;SDS011;3246;42.664;23.308;2023-01-01T11:53:24;85.87;;;49.50;;
6426;SDS011;3246;42.664;23.308;2023-01-01T11:55:52;81.13;;;51.90;;
6426;SDS011;3246;42.664;23.308;2023-01-01T11:58:21;72.35;;;48.25;;
6426;SDS011;3246;42.664;23.308;2023-01-01T12:00:51;74.75;;;46.97;;
6426;SDS011;3246;42.664;23.308;2023-01-01T12:03:21;72.95;;;47.78;;
6426;SDS011;3246;42.664;23.308;2023-01-01T12:05:49;83.63;;;47.33;;
6426;SDS011;3246;42.664;23.308;2023-01-01T12:08:20;72.85;;;45.50;;
6426;SDS011;3246;42.664;23.308;2023-01-01T12:10:49;86.10;;;48.07;;
6426;SDS011;3246;42.664;23.308;2023-01-01T12:13:17;72.00;;;45.97;;
6426;SDS011;3246;42.664;23.308;2023-01-01T12:15:46;71.83;;;47.23;;
6426;SDS011;3246;42.664;23.308;2023-01-01T12:18:17;80.55;;;46.85;;
6426;SDS011;3246;42.664;23.308;2023-01-01T12:20:47;72.65;;;47.75;;
6426;SDS011;3246;42.664;23.308;2023-01-01T12:23:14;74.93;;;47.08;;
6426;SDS011;3246;42.664;23.308;2023-01-01T12:25:43;87.07;;;49.63;;
6426;SDS011;3246;42.664;23.308;2023-01-01T12:28:16;82.80;;;50.28;;
6426;SDS011;3246;42.664;23.308;2023-01-01T12:30:48;85.07;;;50.03;;
6426;SDS011;3246;42.664;23.308;2023-01-01T12:33:24;81.78;;;48.78;;
6426;SDS011;3246;42.664;23.308;2023-01-01T12:36:02;69.53;;;44.65;;
6426;SDS011;3246;42.664;23.308;2023-01-01T12:38:34;60.35;;;40.30;;
6426;SDS011;3246;42.664;23.308;2023-01-01T12:41:07;79.53;;;47.40;;
6426;SDS011;3246;42.664;23.308;2023-01-01T12:43:38;99.22;;;56.95;;
6426;SDS011;3246;42.664;23.308;2023-01-01T12:46:11;74.35;;;45.53;;
6426;SDS011;3246;42.664;23.308;2023-01-01T12:51:30;66.30;;;40.40;;
6426;SDS011;3246;42.664;23.308;2023-01-01T12:54:01;61.95;;;39.60;;
6426;SDS011;3246;42.664;23.308;2023-01-01T12:56:31;71.70;;;38.65;;
6426;SDS011;3246;42.664;23.308;2023-01-01T12:59:00;58.40;;;37.10;;
6426;SDS011;3246;42.664;23.308;2023-01-01T13:01:29;62.60;;;40.65;;
6426;SDS011;3246;42.664;23.308;2023-01-01T13:03:57;53.72;;;36.95;;
6426;SDS011;3246;42.664;23.308;2023-01-01T13:06:24;57.15;;;35.67;;
6426;SDS011;3246;42.664;23.308;2023-01-01T13:08:58;51.25;;;35.92;;
6426;SDS011;3246;42.664;23.308;2023-01-01T13:11:25;51.15;;;35.65;;
6426;SDS011;3246;42.664;23.308;2023-01-01T13:13:52;48.75;;;35.45;;
6426;SDS011;3246;42.664;23.308;2023-01-01T13:16:31;50.50;;;34.47;;
6426;SDS011;3246;42.664;23.308;2023-01-01T13:18:57;51.22;;;33.65;;
6426;SDS011;3246;42.664;23.308;2023-01-01T13:21:24;48.10;;;33.10;;
6426;SDS011;3246;42.664;23.308;2023-01-01T13:23:52;44.03;;;32.65;;
6426;SDS011;3246;42.664;23.308;2023-01-01T13:26:39;45.58;;;32.63;;
6426;SDS011;3246;42.664;23.308;2023-01-01T13:29:27;44.40;;;33.38;;
6426;SDS011;3246;42.664;23.308;2023-01-01T13:32:03;48.90;;;33.42;;
6426;SDS011;3246;42.664;23.308;2023-01-01T13:34:30;52.08;;;32.15;;
6426;SDS011;3246;42.664;23.308;2023-01-01T13:39:50;44.05;;;32.55;;
6426;SDS011;3246;42.664;23.308;2023-01-01T13:45:00;44.03;;;31.83;;
6426;SDS011;3246;42.664;23.308;2023-01-01T13:47:28;47.20;;;33.25;;
6426;SDS011;3246;42.664;23.308;2023-01-01T13:50:01;44.45;;;31.25;;
6426;SDS011;3246;42.664;23.308;2023-01-01T13:52:56;46.60;;;30.67;;
6426;SDS011;3246;42.664;23.308;2023-01-01T14:03:58;49.25;;;31.00;;
6426;SDS011;3246;42.664;23.308;2023-01-01T14:06:26;44.65;;;31.20;;
6426;SDS011;3246;42.664;23.308;2023-01-01T14:09:00;42.83;;;29.67;;
6426;SDS011;3246;42.664;23.308;2023-01-01T14:11:26;47.80;;;32.10;;
6426;SDS011;3246;42.664;23.308;2023-01-01T14:13:53;52.55;;;32.67;;
6426;SDS011;3246;42.664;23.308;2023-01-01T14:16:19;60.20;;;34.05;;
6426;SDS011;3246;42.664;23.308;2023-01-01T14:18:46;53.33;;;35.92;;
6426;SDS011;3246;42.664;23.308;2023-01-01T14:21:16;53.60;;;31.73;;
6426;SDS011;3246;42.664;23.308;2023-01-01T14:23:43;46.88;;;30.58;;
6426;SDS011;3246;42.664;23.308;2023-01-01T14:26:11;48.15;;;31.02;;
6426;SDS011;3246;42.664;23.308;2023-01-01T14:28:37;46.63;;;33.15;;
6426;SDS011;3246;42.664;23.308;2023-01-01T14:31:05;49.47;;;33.08;;
6426;SDS011;3246;42.664;23.308;2023-01-01T14:33:35;57.22;;;32.97;;
6426;SDS011;3246;42.664;23.308;2023-01-01T14:36:03;48.50;;;32.65;;
6426;SDS011;3246;42.664;23.308;2023-01-01T14:38:31;51.05;;;34.30;;
6426;SDS011;3246;42.664;23.308;2023-01-01T14:41:03;52.85;;;33.72;;
6426;SDS011;3246;42.664;23.308;2023-01-01T14:43:31;48.05;;;32.47;;
6426;SDS011;3246;42.664;23.308;2023-01-01T14:46:00;55.67;;;35.20;;